Ridgebury Alexandr Z — V7CT7 — position and weather

sailwx.info

Track history (hours):
 
Tides and Currents Weather Stations Pressure Air Temp Water Temp Dewpoint Dewpoint Depression Visibility Wind Speed Wind Dir Waves Ship Positions

Ridgebury Alexandr Z

Last reported at 2018-Jun-22 02:58 UTC. Time now 2018-Jun-22 03:05 UTC.
Position N 40°37' W 074°04'.

Length 183 m; draft 8.7 m.

Type: Tanker. MMSI: 538005322.

Date/timePositionNaut miles runAvg speedWind from/ knotsBaromVisibWave heightAir tempDewpointWater temp
2018-Jun-22 02:58N 40°37' W 074°04'0 0.0
2018-Jun-22 02:28N 40°37' W 074°04'0 0.0
2018-Jun-22 01:58N 40°37' W 074°04'0 0.0
2018-Jun-22 01:28N 40°37' W 074°04'0 0.0
2018-Jun-22 00:58N 40°37' W 074°04'0 0.0
2018-Jun-22 00:28N 40°37' W 074°04'0 0.0
2018-Jun-21 23:58N 40°37' W 074°04'0 0.0
2018-Jun-21 23:28N 40°37' W 074°04'0 0.1
2018-Jun-21 22:58N 40°38' W 074°04'0 0.4
2018-Jun-21 22:28N 40°38' W 074°04'0 0.1
2018-Jun-21 21:58N 40°38' W 074°04'0 0.0
2018-Jun-21 21:28N 40°38' W 074°04'0 0.0
2018-Jun-21 20:58N 40°38' W 074°04'0 0.0
2018-Jun-21 20:28N 40°38' W 074°04'0 0.1
2018-Jun-21 19:58N 40°38' W 074°04'0 0.0
2018-Jun-21 19:28N 40°38' W 074°04'0 0.1
2018-Jun-21 18:58N 40°38' W 074°04'0 0.0
2018-Jun-21 18:28N 40°38' W 074°04'0 0.0
2018-Jun-21 17:58N 40°38' W 074°04'0 0.1
2018-Jun-21 17:28N 40°38' W 074°04'0 0.2
2018-Jun-21 16:58N 40°38' W 074°04'0 0.2
2018-Jun-21 16:28N 40°38' W 074°04'0 0.1
2018-Jun-21 15:58N 40°37' W 074°04'0 0.1
2018-Jun-21 15:28N 40°37' W 074°04'0 0.0
2018-Jun-21 14:55N 40°37' W 074°04'0 0.0
2018-Jun-21 14:28N 40°37' W 074°04'0 0.1
2018-Jun-21 13:58N 40°37' W 074°04'0 0.0
2018-Jun-21 13:28N 40°37' W 074°04'0 0.0
2018-Jun-21 12:58N 40°37' W 074°04'0 0.0
2018-Jun-21 12:28N 40°37' W 074°04'0 0.0
2018-Jun-21 11:58N 40°37' W 074°04'0 0.0
2018-Jun-21 11:28N 40°37' W 074°04'0 0.0
2018-Jun-21 10:58N 40°37' W 074°04'0 0.0
2018-Jun-21 10:28N 40°37' W 074°04'0 0.0
2018-Jun-21 09:58N 40°37' W 074°04'0 0.3
2018-Jun-21 09:28N 40°38' W 074°04'0 0.2
2018-Jun-21 08:58N 40°38' W 074°04'0 0.1
2018-Jun-21 08:28N 40°38' W 074°04'0 0.0
2018-Jun-21 07:58N 40°38' W 074°04'0 0.0
2018-Jun-21 07:28N 40°38' W 074°04'0 0.0
2018-Jun-21 06:58N 40°38' W 074°04'0 0.0
2018-Jun-21 06:28N 40°38' W 074°04'1 2.6
2018-Jun-21 06:01N 40°39' W 074°04'3 6.3
2018-Jun-21 05:30N 40°39' W 074°08'2 4.9
2018-Jun-21 05:00N 40°38' W 074°11'3 5.1
2018-Jun-21 04:30N 40°36' W 074°12'1 2.4
2018-Jun-21 03:55N 40°35' W 074°13'1 0.0
2018-Jun-19 18:01N 40°36' W 074°12'0 4.2
2018-Jun-19 17:57N 40°36' W 074°12'2 4.5
2018-Jun-19 17:30N 40°38' W 074°12'3 6.0
2018-Jun-19 17:00N 40°39' W 074°08'3 6.2
2018-Jun-19 16:30N 40°39' W 074°04'1 1.7
2018-Jun-19 15:59N 40°38' W 074°03'0 0.0
2018-Jun-19 15:29N 40°38' W 074°03'0 0.0
2018-Jun-19 14:59N 40°38' W 074°03'0 0.1
2018-Jun-19 14:29N 40°38' W 074°03'0 0.4
2018-Jun-19 13:59N 40°38' W 074°03'0 0.1
2018-Jun-19 13:29N 40°38' W 074°03'0 0.0
2018-Jun-19 12:59N 40°38' W 074°03'0 0.0
2018-Jun-19 12:29N 40°38' W 074°03'0 0.0
2018-Jun-19 11:53N 40°38' W 074°03'0 0.0
2018-Jun-19 11:29N 40°38' W 074°03'0 0.1
2018-Jun-19 10:59N 40°38' W 074°03'0 0.0
2018-Jun-19 10:29N 40°38' W 074°03'0 0.1
2018-Jun-19 09:59N 40°38' W 074°03'0 0.0
2018-Jun-19 09:29N 40°38' W 074°03'0 0.1
2018-Jun-19 08:59N 40°38' W 074°03'0 0.0
2018-Jun-19 08:29N 40°38' W 074°03'0 0.0
2018-Jun-19 07:59N 40°38' W 074°03'0 0.4
2018-Jun-19 07:29N 40°38' W 074°03'0 0.1
2018-Jun-19 06:59N 40°38' W 074°03'0 0.0
2018-Jun-19 06:29N 40°38' W 074°03'0 0.0
2018-Jun-19 05:59N 40°38' W 074°03'0 0.0
2018-Jun-19 05:29N 40°38' W 074°03'0 0.0
2018-Jun-19 04:59N 40°38' W 074°03'0 0.0
2018-Jun-19 04:29N 40°38' W 074°03'0 0.1
2018-Jun-19 03:59N 40°38' W 074°03'0 0.0
2018-Jun-19 03:29N 40°38' W 074°03'0 0.1
2018-Jun-19 02:59N 40°38' W 074°03'0 0.0
2018-Jun-19 02:29N 40°38' W 074°03'0 0.0
2018-Jun-19 01:59N 40°38' W 074°03'0 0.1
2018-Jun-19 01:29N 40°38' W 074°03'0 0.3
2018-Jun-19 00:59N 40°38' W 074°03'0 0.3
2018-Jun-19 00:29N 40°38' W 074°03'0 0.1
2018-Jun-18 23:59N 40°38' W 074°03'0 0.0
2018-Jun-18 23:29N 40°38' W 074°03'0 0.0
2018-Jun-18 22:59N 40°38' W 074°03'0 0.0
2018-Jun-18 22:26N 40°38' W 074°03'0 0.0
2018-Jun-18 21:59N 40°38' W 074°03'0 0.0
2018-Jun-18 21:29N 40°38' W 074°03'0 0.1
2018-Jun-18 20:59N 40°38' W 074°03'0 0.0
2018-Jun-18 20:29N 40°38' W 074°03'0 0.1
2018-Jun-18 19:59N 40°38' W 074°03'0 0.5
2018-Jun-18 19:29N 40°38' W 074°03'0 0.1
2018-Jun-18 18:59N 40°38' W 074°03'0 0.1
2018-Jun-18 18:29N 40°38' W 074°03'0 0.0
2018-Jun-18 17:56N 40°38' W 074°03'0 0.0
2018-Jun-18 17:29N 40°38' W 074°03'0 0.0
2018-Jun-18 16:59N 40°38' W 074°03'0 0.0
2018-Jun-18 16:29N 40°38' W 074°03'0 0.1
2018-Jun-18 15:59N 40°38' W 074°03'0 0.0
2018-Jun-18 15:29N 40°38' W 074°03'0 0.1
2018-Jun-18 14:59N 40°38' W 074°03'0 0.1
2018-Jun-18 14:29N 40°38' W 074°03'0 0.0
2018-Jun-18 13:59N 40°38' W 074°03'0 0.0
2018-Jun-18 13:29N 40°38' W 074°03'0 0.1
2018-Jun-18 12:59N 40°38' W 074°03'0 0.3
2018-Jun-18 12:29N 40°38' W 074°03'0 0.2
2018-Jun-18 11:59N 40°38' W 074°03'0 0.1
2018-Jun-18 11:26N 40°38' W 074°03'0 0.1
2018-Jun-18 10:59N 40°38' W 074°03'0 0.0
2018-Jun-18 10:26N 40°38' W 074°03'0 0.0
2018-Jun-18 09:59N 40°38' W 074°03'0 0.0
2018-Jun-18 09:29N 40°38' W 074°03'0 0.0
2018-Jun-18 08:59N 40°38' W 074°03'0 0.1
2018-Jun-18 08:29N 40°38' W 074°03'0 0.1
2018-Jun-18 07:59N 40°38' W 074°03'0 0.0
2018-Jun-18 07:29N 40°38' W 074°03'0 0.0
2018-Jun-18 06:59N 40°38' W 074°03'0 0.3
2018-Jun-18 06:29N 40°38' W 074°03'0 0.3
2018-Jun-18 05:59N 40°38' W 074°03'0 0.1
2018-Jun-18 05:29N 40°38' W 074°03'0 0.0
2018-Jun-18 04:59N 40°38' W 074°03'0 0.0
2018-Jun-18 04:29N 40°38' W 074°03'0 0.1
2018-Jun-18 03:59N 40°38' W 074°03'0 0.0
2018-Jun-18 03:29N 40°38' W 074°03'0 0.0
2018-Jun-18 02:59N 40°38' W 074°03'0 0.1
2018-Jun-18 02:29N 40°38' W 074°03'0 0.0
2018-Jun-18 01:59N 40°38' W 074°03'0 0.1
2018-Jun-18 01:29N 40°38' W 074°03'0 0.0
2018-Jun-18 00:59N 40°38' W 074°03'0 0.0
2018-Jun-18 00:29N 40°38' W 074°03'0 0.2
2018-Jun-17 23:59N 40°38' W 074°03'0 0.3
2018-Jun-17 23:29N 40°38' W 074°03'0 0.1
2018-Jun-17 22:59N 40°38' W 074°03'0 0.0
2018-Jun-17 22:29N 40°38' W 074°03'0 0.0
2018-Jun-17 21:59N 40°38' W 074°03'0 0.0
2018-Jun-17 21:29N 40°38' W 074°03'0 0.0
2018-Jun-17 20:59N 40°38' W 074°03'0 0.0
2018-Jun-17 20:29N 40°38' W 074°03'0 0.0
2018-Jun-17 19:59N 40°38' W 074°03'0 0.0
2018-Jun-17 19:29N 40°38' W 074°03'0 0.1
2018-Jun-17 18:59N 40°38' W 074°03'0 0.3
2018-Jun-17 18:23N 40°38' W 074°03'0 0.2
2018-Jun-17 17:59N 40°38' W 074°03'0 0.1
2018-Jun-17 17:26N 40°38' W 074°03'0 0.0
2018-Jun-17 16:56N 40°38' W 074°03'0 0.0
2018-Jun-17 16:26N 40°38' W 074°03'0 0.0
2018-Jun-17 15:56N 40°38' W 074°03'0 0.1
2018-Jun-17 15:29N 40°38' W 074°03'0 0.0
2018-Jun-17 14:53N 40°38' W 074°03'0 0.0
2018-Jun-17 14:29N 40°38' W 074°03'0 0.0
2018-Jun-17 13:59N 40°38' W 074°03'0 0.1
2018-Jun-17 13:26N 40°38' W 074°03'0 0.1
2018-Jun-17 12:59N 40°38' W 074°03'0 0.4
2018-Jun-17 12:29N 40°38' W 074°03'0 1.0
2018-Jun-17 12:01N 40°38' W 074°03'4 7.7
2018-Jun-17 11:30N 40°34' W 074°02'5 9.1
2018-Jun-17 11:00N 40°31' W 073°58'5 9.6
2018-Jun-17 10:30N 40°28' W 073°52'4 7.8
2018-Jun-17 10:00N 40°27' W 073°48'2 4.4
2018-Jun-17 09:28N 40°28' W 073°45'4 7.2
2018-Jun-17 08:58N 40°29' W 073°40'2 4.6
2018-Jun-17 08:30N 40°29' W 073°38'0 0.1
2018-Jun-17 03:59N 40°29' W 073°37'0 0.1
2018-Jun-17 03:29N 40°29' W 073°37'0 0.5
2018-Jun-17 02:58N 40°29' W 073°38'2 5.0
2018-Jun-17 02:29N 40°28' W 073°41'3 6.8
2018-Jun-17 02:00N 40°25' W 073°42'8 9.5
2018-Jun-17 01:08N 40°20' W 073°35'210.8
2018-Jun-17 00:59N 40°19' W 073°33'  
Track history (hours):
 
Tides and Currents Weather Stations Pressure Air Temp Water Temp Dewpoint Dewpoint Depression Visibility Wind Speed Wind Dir Waves Ship Positions

Ridgebury Alexandr Z

Last reported at 2018-Jun-22 02:58 UTC. Time now 2018-Jun-22 03:05 UTC.
Position N 40°37' W 074°04'.

Length 183 m; draft 8.7 m.

Type: Tanker. MMSI: 538005322.

Date/timePositionNaut miles runAvg speedWind from/ knotsBaromVisibWave heightAir tempDewpointWater temp
2018-Jun-22 02:58N 40°37' W 074°04'0 0.0
2018-Jun-22 02:28N 40°37' W 074°04'0 0.0
2018-Jun-22 01:58N 40°37' W 074°04'0 0.0
2018-Jun-22 01:28N 40°37' W 074°04'0 0.0
2018-Jun-22 00:58N 40°37' W 074°04'0 0.0
2018-Jun-22 00:28N 40°37' W 074°04'0 0.0
2018-Jun-21 23:58N 40°37' W 074°04'0 0.0
2018-Jun-21 23:28N 40°37' W 074°04'0 0.1
2018-Jun-21 22:58N 40°38' W 074°04'0 0.4
2018-Jun-21 22:28N 40°38' W 074°04'0 0.1
2018-Jun-21 21:58N 40°38' W 074°04'0 0.0
2018-Jun-21 21:28N 40°38' W 074°04'0 0.0
2018-Jun-21 20:58N 40°38' W 074°04'0 0.0
2018-Jun-21 20:28N 40°38' W 074°04'0 0.1
2018-Jun-21 19:58N 40°38' W 074°04'0 0.0
2018-Jun-21 19:28N 40°38' W 074°04'0 0.1
2018-Jun-21 18:58N 40°38' W 074°04'0 0.0
2018-Jun-21 18:28N 40°38' W 074°04'0 0.0
2018-Jun-21 17:58N 40°38' W 074°04'0 0.1
2018-Jun-21 17:28N 40°38' W 074°04'0 0.2
2018-Jun-21 16:58N 40°38' W 074°04'0 0.2
2018-Jun-21 16:28N 40°38' W 074°04'0 0.1
2018-Jun-21 15:58N 40°37' W 074°04'0 0.1
2018-Jun-21 15:28N 40°37' W 074°04'0 0.0
2018-Jun-21 14:55N 40°37' W 074°04'0 0.0
2018-Jun-21 14:28N 40°37' W 074°04'0 0.1
2018-Jun-21 13:58N 40°37' W 074°04'0 0.0
2018-Jun-21 13:28N 40°37' W 074°04'0 0.0
2018-Jun-21 12:58N 40°37' W 074°04'0 0.0
2018-Jun-21 12:28N 40°37' W 074°04'0 0.0
2018-Jun-21 11:58N 40°37' W 074°04'0 0.0
2018-Jun-21 11:28N 40°37' W 074°04'0 0.0
2018-Jun-21 10:58N 40°37' W 074°04'0 0.0
2018-Jun-21 10:28N 40°37' W 074°04'0 0.0
2018-Jun-21 09:58N 40°37' W 074°04'0 0.3
2018-Jun-21 09:28N 40°38' W 074°04'0 0.2
2018-Jun-21 08:58N 40°38' W 074°04'0 0.1
2018-Jun-21 08:28N 40°38' W 074°04'0 0.0
2018-Jun-21 07:58N 40°38' W 074°04'0 0.0
2018-Jun-21 07:28N 40°38' W 074°04'0 0.0
2018-Jun-21 06:58N 40°38' W 074°04'0 0.0
2018-Jun-21 06:28N 40°38' W 074°04'1 2.6
2018-Jun-21 06:01N 40°39' W 074°04'3 6.3
2018-Jun-21 05:30N 40°39' W 074°08'2 4.9
2018-Jun-21 05:00N 40°38' W 074°11'3 5.1
2018-Jun-21 04:30N 40°36' W 074°12'1 2.4
2018-Jun-21 03:55N 40°35' W 074°13'1 0.0
2018-Jun-19 18:01N 40°36' W 074°12'0 4.2
2018-Jun-19 17:57N 40°36' W 074°12'2 4.5
2018-Jun-19 17:30N 40°38' W 074°12'3 6.0
2018-Jun-19 17:00N 40°39' W 074°08'3 6.2
2018-Jun-19 16:30N 40°39' W 074°04'1 1.7
2018-Jun-19 15:59N 40°38' W 074°03'0 0.0
2018-Jun-19 15:29N 40°38' W 074°03'0 0.0
2018-Jun-19 14:59N 40°38' W 074°03'0 0.1
2018-Jun-19 14:29N 40°38' W 074°03'0 0.4
2018-Jun-19 13:59N 40°38' W 074°03'0 0.1
2018-Jun-19 13:29N 40°38' W 074°03'0 0.0
2018-Jun-19 12:59N 40°38' W 074°03'0 0.0
2018-Jun-19 12:29N 40°38' W 074°03'0 0.0
2018-Jun-19 11:53N 40°38' W 074°03'0 0.0
2018-Jun-19 11:29N 40°38' W 074°03'0 0.1
2018-Jun-19 10:59N 40°38' W 074°03'0 0.0
2018-Jun-19 10:29N 40°38' W 074°03'0 0.1
2018-Jun-19 09:59N 40°38' W 074°03'0 0.0
2018-Jun-19 09:29N 40°38' W 074°03'0 0.1
2018-Jun-19 08:59N 40°38' W 074°03'0 0.0
2018-Jun-19 08:29N 40°38' W 074°03'0 0.0
2018-Jun-19 07:59N 40°38' W 074°03'0 0.4
2018-Jun-19 07:29N 40°38' W 074°03'0 0.1
2018-Jun-19 06:59N 40°38' W 074°03'0 0.0
2018-Jun-19 06:29N 40°38' W 074°03'0 0.0
2018-Jun-19 05:59N 40°38' W 074°03'0 0.0
2018-Jun-19 05:29N 40°38' W 074°03'0 0.0
2018-Jun-19 04:59N 40°38' W 074°03'0 0.0
2018-Jun-19 04:29N 40°38' W 074°03'0 0.1
2018-Jun-19 03:59N 40°38' W 074°03'0 0.0
2018-Jun-19 03:29N 40°38' W 074°03'0 0.1
2018-Jun-19 02:59N 40°38' W 074°03'0 0.0
2018-Jun-19 02:29N 40°38' W 074°03'0 0.0
2018-Jun-19 01:59N 40°38' W 074°03'0 0.1
2018-Jun-19 01:29N 40°38' W 074°03'0 0.3
2018-Jun-19 00:59N 40°38' W 074°03'0 0.3
2018-Jun-19 00:29N 40°38' W 074°03'0 0.1
2018-Jun-18 23:59N 40°38' W 074°03'0 0.0
2018-Jun-18 23:29N 40°38' W 074°03'0 0.0
2018-Jun-18 22:59N 40°38' W 074°03'0 0.0
2018-Jun-18 22:26N 40°38' W 074°03'0 0.0
2018-Jun-18 21:59N 40°38' W 074°03'0 0.0
2018-Jun-18 21:29N 40°38' W 074°03'0 0.1
2018-Jun-18 20:59N 40°38' W 074°03'0 0.0
2018-Jun-18 20:29N 40°38' W 074°03'0 0.1
2018-Jun-18 19:59N 40°38' W 074°03'0 0.5
2018-Jun-18 19:29N 40°38' W 074°03'0 0.1
2018-Jun-18 18:59N 40°38' W 074°03'0 0.1
2018-Jun-18 18:29N 40°38' W 074°03'0 0.0
2018-Jun-18 17:56N 40°38' W 074°03'0 0.0
2018-Jun-18 17:29N 40°38' W 074°03'0 0.0
2018-Jun-18 16:59N 40°38' W 074°03'0 0.0
2018-Jun-18 16:29N 40°38' W 074°03'0 0.1
2018-Jun-18 15:59N 40°38' W 074°03'0 0.0
2018-Jun-18 15:29N 40°38' W 074°03'0 0.1
2018-Jun-18 14:59N 40°38' W 074°03'0 0.1
2018-Jun-18 14:29N 40°38' W 074°03'0 0.0
2018-Jun-18 13:59N 40°38' W 074°03'0 0.0
2018-Jun-18 13:29N 40°38' W 074°03'0 0.1
2018-Jun-18 12:59N 40°38' W 074°03'0 0.3
2018-Jun-18 12:29N 40°38' W 074°03'0 0.2
2018-Jun-18 11:59N 40°38' W 074°03'0 0.1
2018-Jun-18 11:26N 40°38' W 074°03'0 0.1
2018-Jun-18 10:59N 40°38' W 074°03'0 0.0
2018-Jun-18 10:26N 40°38' W 074°03'0 0.0
2018-Jun-18 09:59N 40°38' W 074°03'0 0.0
2018-Jun-18 09:29N 40°38' W 074°03'0 0.0
2018-Jun-18 08:59N 40°38' W 074°03'0 0.1
2018-Jun-18 08:29N 40°38' W 074°03'0 0.1
2018-Jun-18 07:59N 40°38' W 074°03'0 0.0
2018-Jun-18 07:29N 40°38' W 074°03'0 0.0
2018-Jun-18 06:59N 40°38' W 074°03'0 0.3
2018-Jun-18 06:29N 40°38' W 074°03'0 0.3
2018-Jun-18 05:59N 40°38' W 074°03'0 0.1
2018-Jun-18 05:29N 40°38' W 074°03'0 0.0
2018-Jun-18 04:59N 40°38' W 074°03'0 0.0
2018-Jun-18 04:29N 40°38' W 074°03'0 0.1
2018-Jun-18 03:59N 40°38' W 074°03'0 0.0
2018-Jun-18 03:29N 40°38' W 074°03'0 0.0
2018-Jun-18 02:59N 40°38' W 074°03'0 0.1
2018-Jun-18 02:29N 40°38' W 074°03'0 0.0
2018-Jun-18 01:59N 40°38' W 074°03'0 0.1
2018-Jun-18 01:29N 40°38' W 074°03'0 0.0
2018-Jun-18 00:59N 40°38' W 074°03'0 0.0
2018-Jun-18 00:29N 40°38' W 074°03'0 0.2
2018-Jun-17 23:59N 40°38' W 074°03'0 0.3
2018-Jun-17 23:29N 40°38' W 074°03'0 0.1
2018-Jun-17 22:59N 40°38' W 074°03'0 0.0
2018-Jun-17 22:29N 40°38' W 074°03'0 0.0
2018-Jun-17 21:59N 40°38' W 074°03'0 0.0
2018-Jun-17 21:29N 40°38' W 074°03'0 0.0
2018-Jun-17 20:59N 40°38' W 074°03'0 0.0
2018-Jun-17 20:29N 40°38' W 074°03'0 0.0
2018-Jun-17 19:59N 40°38' W 074°03'0 0.0
2018-Jun-17 19:29N 40°38' W 074°03'0 0.1
2018-Jun-17 18:59N 40°38' W 074°03'0 0.3
2018-Jun-17 18:23N 40°38' W 074°03'0 0.2
2018-Jun-17 17:59N 40°38' W 074°03'0 0.1
2018-Jun-17 17:26N 40°38' W 074°03'0 0.0
2018-Jun-17 16:56N 40°38' W 074°03'0 0.0
2018-Jun-17 16:26N 40°38' W 074°03'0 0.0
2018-Jun-17 15:56N 40°38' W 074°03'0 0.1
2018-Jun-17 15:29N 40°38' W 074°03'0 0.0
2018-Jun-17 14:53N 40°38' W 074°03'0 0.0
2018-Jun-17 14:29N 40°38' W 074°03'0 0.0
2018-Jun-17 13:59N 40°38' W 074°03'0 0.1
2018-Jun-17 13:26N 40°38' W 074°03'0 0.1
2018-Jun-17 12:59N 40°38' W 074°03'0 0.4
2018-Jun-17 12:29N 40°38' W 074°03'0 1.0
2018-Jun-17 12:01N 40°38' W 074°03'4 7.7
2018-Jun-17 11:30N 40°34' W 074°02'5 9.1
2018-Jun-17 11:00N 40°31' W 073°58'5 9.6
2018-Jun-17 10:30N 40°28' W 073°52'4 7.8
2018-Jun-17 10:00N 40°27' W 073°48'2 4.4
2018-Jun-17 09:28N 40°28' W 073°45'4 7.2
2018-Jun-17 08:58N 40°29' W 073°40'2 4.6
2018-Jun-17 08:30N 40°29' W 073°38'0 0.1
2018-Jun-17 03:59N 40°29' W 073°37'0 0.1
2018-Jun-17 03:29N 40°29' W 073°37'0 0.5
2018-Jun-17 02:58N 40°29' W 073°38'2 5.0
2018-Jun-17 02:29N 40°28' W 073°41'3 6.8
2018-Jun-17 02:00N 40°25' W 073°42'8 9.5
2018-Jun-17 01:08N 40°20' W 073°35'210.8
2018-Jun-17 00:59N 40°19' W 073°33'  

Dump ship's entire track history